Time;durP1;ratioP1;P1;durP2;ratioP2;P2;SDS_P1;SDS_P2;PMS_P1;PMS_P2;Temp;Humidity;BMP_temperature;BMP_pressure;BME280_temperature;BME280_humidity;BME280_pressure;Samples;Min_cycle;Max_cycle;Signal;HPM_P1;HPM_P2
2022/10/20 00:01:11;;;;;;;13.73;8.98;;;;;;;7.70;86.24;101245.06;5008805;28;20058;-69
2022/10/20 00:03:37;;;;;;;17.00;8.68;;;;;;;7.66;86.31;101246.19;5009374;28;20038;-69
2022/10/20 00:06:10;;;;;;;11.98;9.10;;;;;;;7.54;86.33;101233.59;5009439;28;20042;-69
2022/10/20 00:08:36;;;;;;;11.32;8.40;;;;;;;7.45;86.31;101234.16;5009489;28;20412;-69
2022/10/20 00:11:01;;;;;;;15.23;8.20;;;;;;;7.42;86.27;101231.66;5009508;28;20469;-69
2022/10/20 00:13:27;;;;;;;11.40;7.43;;;;;;;7.48;86.42;101256.16;5009224;28;20062;-69
2022/10/20 00:15:54;;;;;;;13.95;8.77;;;;;;;7.48;85.91;101261.50;5009598;28;20065;-69
2022/10/20 00:18:23;;;;;;;12.90;8.50;;;;;;;7.37;86.64;101250.63;5009160;28;20424;-70
2022/10/20 00:20:49;;;;;;;14.55;8.70;;;;;;;7.37;86.18;101255.09;5009726;28;20033;-69
2022/10/20 00:23:15;;;;;;;17.00;8.82;;;;;;;7.37;86.85;101274.63;5009546;28;20472;-69
2022/10/20 00:25:40;;;;;;;13.00;8.50;;;;;;;7.25;86.47;101258.50;5009310;28;20080;-69
2022/10/20 00:28:06;;;;;;;12.18;8.30;;;;;;;7.34;86.97;101276.59;5009045;28;20054;-69
2022/10/20 00:30:33;;;;;;;11.93;8.20;;;;;;;7.27;87.66;101273.47;5009810;28;20041;-69
2022/10/20 00:32:58;;;;;;;12.98;9.35;;;;;;;7.27;87.95;101286.81;5012754;28;20404;-69
2022/10/20 00:35:24;;;;;;;13.48;9.00;;;;;;;7.17;87.34;101264.28;5013129;28;20041;-69
2022/10/20 00:37:49;;;;;;;15.20;8.27;;;;;;;7.17;87.44;101268.75;5012830;28;20049;-69
2022/10/20 00:40:15;;;;;;;15.05;9.35;;;;;;;7.17;87.12;101277.63;5013326;28;20106;-69
2022/10/20 00:42:44;;;;;;;14.43;8.80;;;;;;;7.01;86.83;101258.13;5012969;28;20026;-69
2022/10/20 00:45:14;;;;;;;13.35;8.75;;;;;;;7.13;87.51;101285.88;5013122;28;20384;-69
2022/10/20 00:47:46;;;;;;;15.55;9.73;;;;;;;7.09;87.85;101282.53;5011193;28;20037;-69
2022/10/20 00:50:16;;;;;;;12.98;8.63;;;;;;;7.06;88.35;101276.53;5012862;28;20056;-69
2022/10/20 00:52:43;;;;;;;13.65;8.77;;;;;;;7.04;88.16;101282.78;5012831;28;20033;-69
2022/10/20 00:55:11;;;;;;;15.48;9.40;;;;;;;7.03;88.25;101283.75;5012734;28;20030;-69
2022/10/20 00:57:37;;;;;;;15.00;9.57;;;;;;;6.78;88.07;101248.78;5012568;28;20678;-69
2022/10/20 01:00:04;;;;;;;18.58;9.15;;;;;;;6.97;89.01;101278.75;5012705;28;20148;-69
2022/10/20 01:02:30;;;;;;;18.83;9.55;;;;;;;6.96;89.26;101286.84;5011464;28;20451;-69
2022/10/20 01:04:55;;;;;;;16.40;9.40;;;;;;;6.75;89.01;101262.28;5012674;28;20037;-69
2022/10/20 01:07:21;;;;;;;16.65;9.95;;;;;;;6.86;88.66;101283.88;5012507;28;20021;-69
2022/10/20 01:09:47;;;;;;;14.07;9.75;;;;;;;6.76;89.34;101268.47;5011335;28;20033;-69
2022/10/20 01:12:31;;;;;;;19.15;10.52;;;;;;;6.85;89.27;101286.63;5010932;28;20507;-70
2022/10/20 01:15:15;;;;;;;21.25;10.23;;;;;;;6.85;88.59;101291.97;5011945;28;20516;-69
2022/10/20 01:18:03;;;;;;;17.17;9.88;;;;;;;6.82;89.25;101300.13;5012207;28;20017;-69
2022/10/20 01:20:38;;;;;;;17.10;9.38;;;;;;;6.80;89.45;101294.88;4992557;28;20026;-69
2022/10/20 01:23:15;;;;;;;17.10;9.32;;;;;;;6.75;89.38;101298.75;5011104;28;20698;-69
2022/10/20 01:26:02;;;;;;;16.88;8.88;;;;;;;6.71;89.11;101302.56;5011899;28;20476;-69
2022/10/20 01:28:42;;;;;;;14.10;9.15;;;;;;;6.64;88.75;101294.03;5012095;28;20034;-69
2022/10/20 01:31:36;;;;;;;15.30;9.32;;;;;;;6.50;88.67;101283.28;5011501;28;20042;-69
2022/10/20 01:34:10;;;;;;;13.80;8.77;;;;;;;6.62;88.88;101308.41;5011888;28;20037;-69
2022/10/20 01:36:48;;;;;;;16.60;9.98;;;;;;;6.45;88.15;101289.81;5011920;28;20038;-69
2022/10/20 01:39:28;;;;;;;12.70;8.65;;;;;;;6.52;87.86;101305.38;5011897;28;20060;-69
2022/10/20 01:42:07;;;;;;;15.90;8.65;;;;;;;6.43;88.29;101295.22;5011873;28;20029;-69
2022/10/20 01:44:35;;;;;;;16.65;9.27;;;;;;;6.49;88.11;101318.00;5010005;28;20029;-69
2022/10/20 01:47:01;;;;;;;16.63;9.38;;;;;;;6.24;87.73;101283.88;5011419;28;20160;-69
2022/10/20 01:49:27;;;;;;;11.65;8.65;;;;;;;6.21;87.76;101278.72;5011651;28;20026;-69
2022/10/20 01:51:54;;;;;;;13.88;8.88;;;;;;;6.34;87.60;101303.72;5011482;28;20865;-69
2022/10/20 01:54:25;;;;;;;12.43;8.80;;;;;;;6.34;87.53;101318.84;5011872;28;20038;-69
2022/10/20 01:57:06;;;;;;;12.13;8.85;;;;;;;6.27;87.97;101318.34;5011807;28;20484;-69
2022/10/20 01:59:40;;;;;;;14.38;9.20;;;;;;;6.22;87.44;101319.50;5011572;28;20038;-69
2022/10/20 02:02:31;;;;;;;13.85;8.98;;;;;;;6.24;87.30;101325.63;5011090;28;20038;-69
2022/10/20 02:05:10;;;;;;;12.50;8.77;;;;;;;6.21;87.37;101323.13;5010091;28;20045;-69
2022/10/20 02:07:35;;;;;;;11.02;8.80;;;;;;;6.14;87.37;101319.06;5010109;28;20079;-69
2022/10/20 02:10:31;;;;;;;14.20;8.70;;;;;;;6.15;87.38;101329.63;5011340;28;20041;-69
2022/10/20 02:13:02;;;;;;;13.55;9.30;;;;;;;6.10;87.59;101334.34;5009800;28;20124;-70
2022/10/20 02:15:31;;;;;;;13.18;9.82;;;;;;;5.93;87.46;101310.41;5011588;28;20052;-69
2022/10/20 02:18:02;;;;;;;13.52;8.98;;;;;;;5.96;88.02;101320.91;5011564;28;20025;-69
2022/10/20 02:20:29;;;;;;;13.20;8.65;;;;;;;5.89;87.81;101315.97;5011392;28;20026;-69
2022/10/20 02:22:57;;;;;;;15.52;9.35;;;;;;;5.86;88.56;101316.13;5010877;28;20461;-69
2022/10/20 02:25:24;;;;;;;17.13;9.02;;;;;;;5.96;88.27;101342.19;5011062;28;20042;-69
2022/10/20 02:27:50;;;;;;;12.23;8.80;;;;;;;5.95;88.76;101353.81;5011721;28;20033;-71
2022/10/20 02:30:18;;;;;;;16.77;9.13;;;;;;;5.90;88.99;101333.69;5010726;28;20034;-71
2022/10/20 02:32:48;;;;;;;16.65;9.50;;;;;;;5.90;89.24;101345.19;5010884;28;20046;-71
2022/10/20 02:35:17;;;;;;;15.05;9.20;;;;;;;5.86;89.06;101342.75;5010456;28;20117;-71
2022/10/20 02:37:43;;;;;;;16.02;9.40;;;;;;;5.81;89.04;101335.00;5011385;28;20084;-72
2022/10/20 02:40:09;;;;;;;14.05;8.77;;;;;;;5.84;89.26;101345.50;5010227;28;20029;-71
2022/10/20 02:42:36;;;;;;;14.32;8.38;;;;;;;5.83;88.88;101348.25;5009205;28;20034;-72
2022/10/20 02:45:02;;;;;;;13.07;9.25;;;;;;;5.77;88.59;101346.72;5010647;28;20120;-71
2022/10/20 02:47:27;;;;;;;13.10;8.98;;;;;;;5.55;88.53;101311.50;5010857;28;20472;-71
2022/10/20 02:49:53;;;;;;;12.73;8.63;;;;;;;5.62;88.97;101325.38;5010591;28;20113;-71
2022/10/20 02:52:18;;;;;;;16.60;8.95;;;;;;;5.72;89.07;101361.22;5010391;28;20037;-72
2022/10/20 02:54:44;;;;;;;12.75;8.80;;;;;;;5.58;88.97;101337.97;5010244;28;20037;-71
2022/10/20 02:57:09;;;;;;;13.18;9.10;;;;;;;5.70;89.59;101369.28;5009007;28;20038;-71
2022/10/20 02:59:34;;;;;;;12.82;8.88;;;;;;;5.67;89.37;101365.94;5010408;28;20034;-71
2022/10/20 03:02:00;;;;;;;12.65;9.30;;;;;;;5.67;89.23;101374.75;5009625;28;20116;-71
2022/10/20 03:04:25;;;;;;;13.52;9.05;;;;;;;5.53;89.15;101352.44;5010162;28;20439;-71
2022/10/20 03:06:51;;;;;;;11.60;8.18;;;;;;;5.44;88.82;101351.13;5010361;28;20033;-71
2022/10/20 03:09:16;;;;;;;12.77;8.60;;;;;;;5.52;88.27;101358.72;5010139;28;20384;-71
2022/10/20 03:11:42;;;;;;;13.05;8.48;;;;;;;5.53;88.56;101366.63;5010075;28;20951;-71
2022/10/20 03:14:07;;;;;;;11.20;8.13;;;;;;;5.51;88.09;101368.50;5008530;28;20080;-71
2022/10/20 03:16:33;;;;;;;12.18;8.15;;;;;;;5.44;88.32;101361.75;5010098;28;20476;-71
2022/10/20 03:18:58;;;;;;;10.57;7.95;;;;;;;5.38;88.28;101353.25;5009932;28;20025;-71
2022/10/20 03:21:23;;;;;;;13.60;8.85;;;;;;;5.44;88.65;101372.41;5009654;28;20514;-73
2022/10/20 03:23:49;;;;;;;12.10;8.35;;;;;;;5.24;88.56;101347.72;5010105;28;20025;-72
2022/10/20 03:26:14;;;;;;;14.52;8.30;;;;;;;5.21;88.58;101359.38;5009918;28;20030;-73
2022/10/20 03:28:40;;;;;;;18.23;9.98;;;;;;;5.37;88.64;101389.59;5007049;28;20025;-72
2022/10/20 03:31:07;;;;;;;18.52;8.52;;;;;;;5.34;88.66;101383.56;5003244;28;20025;-73
2022/10/20 03:33:32;;;;;;;20.40;9.13;;;;;;;5.34;88.64;101396.88;4996659;28;20104;-72
2022/10/20 03:35:57;;;;;;;17.55;9.40;;;;;;;5.30;88.30;101392.63;5004825;28;20054;-72
2022/10/20 03:38:23;;;;;;;17.48;8.43;;;;;;;5.27;88.75;101391.00;5000616;28;20022;-72
2022/10/20 03:40:49;;;;;;;12.07;8.73;;;;;;;5.22;88.94;101395.66;4998515;28;20158;-72
2022/10/20 03:43:14;;;;;;;19.67;9.27;;;;;;;5.23;88.51;101402.72;4998506;28;20031;-72
2022/10/20 03:45:43;;;;;;;11.90;8.77;;;;;;;5.02;89.22;101368.31;4996075;28;20587;-72
2022/10/20 03:48:09;;;;;;;13.00;8.80;;;;;;;5.18;89.63;101391.44;4999657;28;20141;-72
2022/10/20 03:50:37;;;;;;;15.15;8.55;;;;;;;5.16;89.19;101398.63;5007266;28;20026;-70
2022/10/20 03:53:03;;;;;;;12.52;8.15;;;;;;;5.12;89.46;101398.88;5003886;28;20109;-70
2022/10/20 03:55:29;;;;;;;11.68;7.38;;;;;;;5.06;89.30;101397.34;5006684;28;20110;-69
2022/10/20 03:57:54;;;;;;;13.55;7.35;;;;;;;5.06;89.86;101391.19;5001045;28;20038;-69
2022/10/20 04:00:20;;;;;;;13.95;7.93;;;;;;;5.05;89.56;101397.41;5001527;28;20030;-70
2022/10/20 04:02:46;;;;;;;14.27;7.82;;;;;;;4.94;89.64;101384.66;4999856;28;20440;-70
2022/10/20 04:05:17;;;;;;;17.05;8.60;;;;;;;5.01;89.33;101394.06;5005874;28;20030;-71
2022/10/20 04:07:45;;;;;;;11.65;7.47;;;;;;;4.97;89.63;101396.94;5003929;28;20029;-70
2022/10/20 04:10:12;;;;;;;16.08;8.45;;;;;;;4.83;89.21;101378.13;5001551;28;20018;-70
2022/10/20 04:12:38;;;;;;;14.30;7.72;;;;;;;4.93;88.93;101398.88;5003071;28;20022;-70
2022/10/20 04:15:05;;;;;;;15.80;7.97;;;;;;;4.89;89.23;101399.94;5002587;28;20042;-69
2022/10/20 04:17:30;;;;;;;14.23;7.68;;;;;;;4.88;89.45;101397.38;5002238;28;20041;-69
2022/10/20 04:19:56;;;;;;;12.35;7.70;;;;;;;4.72;89.52;101381.28;5001128;28;20034;-69
2022/10/20 04:22:21;;;;;;;19.55;9.27;;;;;;;4.87;89.56;101408.94;5001195;28;20021;-69
2022/10/20 04:24:47;;;;;;;16.90;8.63;;;;;;;4.82;88.91;101406.50;5003237;28;20129;-70
2022/10/20 04:27:12;;;;;;;15.65;8.60;;;;;;;4.69;89.25;101384.09;5003184;28;20108;-71
2022/10/20 04:29:37;;;;;;;21.55;10.43;;;;;;;4.63;89.18;101377.28;4996219;28;20068;-70
2022/10/20 04:32:03;;;;;;;13.93;8.57;;;;;;;4.66;89.40;101382.44;4994614;28;20379;-70
2022/10/20 04:34:29;;;;;;;15.70;8.27;;;;;;;4.73;89.53;101394.50;4996806;28;20038;-70
2022/10/20 04:36:54;;;;;;;14.85;8.18;;;;;;;4.64;89.68;101383.44;5009259;28;20040;-70
2022/10/20 04:39:20;;;;;;;12.77;8.88;;;;;;;4.69;90.00;101395.59;4995221;28;20022;-71
2022/10/20 04:41:45;;;;;;;17.48;8.65;;;;;;;4.55;89.73;101373.25;4998320;28;20042;-71
2022/10/20 04:44:11;;;;;;;17.92;9.02;;;;;;;4.66;90.19;101392.19;4997295;28;20022;-70
2022/10/20 04:46:36;;;;;;;17.35;9.13;;;;;;;4.54;90.19;101384.78;4999149;28;20029;-70
2022/10/20 04:49:02;;;;;;;22.15;9.77;;;;;;;4.64;90.09;101402.03;4991981;28;20028;-71
2022/10/20 04:51:27;;;;;;;42.67;9.90;;;;;;;4.30;90.41;101331.03;4999918;28;20021;-70
2022/10/20 04:53:53;;;;;;;51.08;11.95;;;;;;;4.60;90.00;101390.69;5000407;28;20041;-70
2022/10/20 04:56:20;;;;;;;44.13;11.30;;;;;;;4.58;89.73;101389.06;5024988;28;20111;-71
2022/10/20 04:58:54;;;;;;;33.45;10.30;;;;;;;4.57;89.32;101397.94;5029142;28;20025;-71
2022/10/20 05:01:21;;;;;;;28.98;9.35;;;;;;;4.42;88.46;101375.59;5027508;28;20057;-71
2022/10/20 05:03:46;;;;;;;26.65;9.07;;;;;;;4.41;89.04;101381.84;5027394;28;20471;-71
2022/10/20 05:06:15;;;;;;;19.05;8.88;;;;;;;4.22;89.38;101354.41;5011186;28;20032;-70
2022/10/20 05:08:46;;;;;;;34.40;9.70;;;;;;;4.51;89.73;101408.84;5016135;28;20124;-70
2022/10/20 05:11:12;;;;;;;39.88;8.73;;;;;;;4.47;89.59;101402.81;5025220;28;20425;-71
2022/10/20 05:13:38;;;;;;;29.27;9.98;;;;;;;4.39;89.18;101391.66;5026581;28;20072;-70
2022/10/20 05:16:05;;;;;;;38.58;10.32;;;;;;;4.29;89.37;101377.09;5008489;28;20697;-71
2022/10/20 05:18:31;;;;;;;26.45;10.55;;;;;;;4.48;89.39;101409.84;5012918;28;20032;-71
2022/10/20 05:20:57;;;;;;;30.00;9.52;;;;;;;4.41;89.08;101405.75;5012736;28;20033;-71
2022/10/20 05:23:23;;;;;;;19.98;9.45;;;;;;;4.45;89.71;101411.81;5013189;28;20038;-70
2022/10/20 05:25:48;;;;;;;38.33;10.70;;;;;;;4.48;89.86;101424.91;5011250;28;20116;-71
2022/10/20 05:28:13;;;;;;;36.88;11.45;;;;;;;4.46;90.00;101424.13;5011140;28;20033;-71
2022/10/20 05:30:39;;;;;;;44.97;10.43;;;;;;;4.47;90.10;101428.50;5012980;28;20030;-71
2022/10/20 05:33:04;;;;;;;40.85;12.13;;;;;;;4.32;90.32;101406.16;5014576;28;20464;-72
2022/10/20 05:35:30;;;;;;;38.17;10.00;;;;;;;4.46;90.32;101438.25;5016340;28;20048;-71
2022/10/20 05:37:56;;;;;;;40.92;11.07;;;;;;;4.43;90.53;101435.78;5026834;28;20038;-71
2022/10/20 05:40:22;;;;;;;33.55;9.88;;;;;;;4.46;90.35;101440.06;5023491;28;20088;-71
2022/10/20 05:42:47;;;;;;;36.65;10.73;;;;;;;4.47;90.42;101444.44;5024574;28;20025;-71
2022/10/20 05:45:13;;;;;;;83.47;13.25;;;;;;;4.48;90.59;101452.34;5015526;28;20088;-71
2022/10/20 05:47:39;;;;;;;103.43;15.85;;;;;;;4.30;90.50;101418.66;5010583;28;20056;-71
2022/10/20 05:50:05;;;;;;;113.25;18.08;;;;;;;4.29;90.99;101421.38;5012216;28;20116;-72
2022/10/20 05:52:30;;;;;;;83.28;17.13;;;;;;;4.51;90.92;101461.97;5021124;28;20026;-71
2022/10/20 05:54:56;;;;;;;93.43;16.30;;;;;;;4.58;91.26;101474.06;5022467;28;20037;-72
2022/10/20 05:57:22;;;;;;;62.08;13.38;;;;;;;4.31;91.55;101416.84;5012271;28;20044;-71
2022/10/20 05:59:47;;;;;;;49.55;12.73;;;;;;;4.51;91.68;101452.22;5016145;28;20038;-71
2022/10/20 06:02:13;;;;;;;47.75;13.05;;;;;;;4.60;92.41;101469.53;5031891;28;20473;-71
2022/10/20 06:04:38;;;;;;;41.97;13.00;;;;;;;4.62;93.09;101459.69;5031940;28;20473;-72
2022/10/20 06:07:08;;;;;;;26.85;12.30;;;;;;;4.68;93.55;101464.75;5031658;28;20034;-71
2022/10/20 06:09:35;;;;;;;30.17;14.00;;;;;;;4.83;93.90;101487.09;5013924;28;20108;-71
2022/10/20 06:12:01;;;;;;;38.97;17.75;;;;;;;4.85;94.28;101483.44;5011658;28;20034;-71
2022/10/20 06:14:27;;;;;;;53.15;22.50;;;;;;;4.97;95.22;101505.94;5011988;28;20030;-71
2022/10/20 06:16:54;;;;;;;48.85;22.92;;;;;;;5.03;96.04;101501.19;5011959;28;20025;-70
2022/10/20 06:19:20;;;;;;;42.80;21.23;;;;;;;4.98;96.32;101479.28;5011332;28;20041;-71
2022/10/20 06:21:45;;;;;;;42.17;21.30;;;;;;;5.09;96.58;101486.75;5011654;28;20034;-70
2022/10/20 06:24:11;;;;;;;40.20;20.85;;;;;;;5.27;97.20;101510.69;5007491;28;20026;-71
2022/10/20 06:26:38;;;;;;;42.05;20.05;;;;;;;5.29;96.99;101503.47;5009364;28;20030;-71
2022/10/20 06:29:10;;;;;;;35.78;19.15;;;;;;;5.38;97.16;101511.03;5008473;28;20446;-70
2022/10/20 06:31:38;;;;;;;34.45;17.92;;;;;;;5.51;97.63;101522.81;5010312;28;20037;-72
2022/10/20 06:34:07;;;;;;;35.08;17.98;;;;;;;5.55;98.16;101511.06;5008406;28;20049;-70
2022/10/20 06:36:37;;;;;;;35.20;17.70;;;;;;;5.66;98.17;101524.75;5009035;28;20044;-71
2022/10/20 06:39:05;;;;;;;31.90;16.10;;;;;;;5.78;98.55;101513.50;5008214;28;20025;-70
2022/10/20 06:41:31;;;;;;;35.03;15.85;;;;;;;5.81;98.85;101513.34;5009189;28;20037;-71
2022/10/20 06:43:58;;;;;;;32.42;17.17;;;;;;;5.98;99.20;101528.50;5011152;28;20134;-70
2022/10/20 06:46:26;;;;;;;28.05;15.57;;;;;;;6.12;98.90;101528.66;5010944;28;20053;-70
2022/10/20 06:48:51;;;;;;;34.15;15.50;;;;;;;6.23;99.12;101532.53;5010161;28;20029;-71
2022/10/20 06:51:20;;;;;;;22.40;13.93;;;;;;;6.40;99.43;101540.53;5010338;28;20232;-71
2022/10/20 06:53:46;;;;;;;32.90;14.48;;;;;;;6.42;99.32;101513.81;5010362;28;20464;-71
2022/10/20 06:56:14;;;;;;;25.77;13.02;;;;;;;6.60;99.20;101524.38;5041954;28;20033;-71
2022/10/20 06:58:41;;;;;;;24.50;14.25;;;;;;;6.74;99.32;101505.00;5009907;28;20014;-71
2022/10/20 07:01:08;;;;;;;21.65;12.85;;;;;;;7.18;99.70;101539.91;5010258;28;20049;-70
2022/10/20 07:03:35;;;;;;;17.27;11.13;;;;;;;7.49;99.31;101547.97;5010208;28;20029;-70
2022/10/20 07:06:01;;;;;;;16.73;9.93;;;;;;;7.60;98.51;101532.19;5010276;28;20038;-69
2022/10/20 07:08:29;;;;;;;12.65;8.05;;;;;;;7.91;97.77;101545.53;5009893;28;20092;-70
2022/10/20 07:10:59;;;;;;;10.13;6.75;;;;;;;7.93;96.29;101512.44;4990808;28;20126;-70
2022/10/20 07:13:25;;;;;;;10.02;6.25;;;;;;;8.30;94.98;101540.59;5004239;28;20448;-70
2022/10/20 07:15:55;;;;;;;11.85;6.68;;;;;;;8.44;93.51;101514.75;5010612;28;20049;-71
2022/10/20 07:18:21;;;;;;;7.80;4.65;;;;;;;8.82;92.54;101547.19;5010069;28;20479;-71
2022/10/20 07:20:46;;;;;;;10.00;5.30;;;;;;;9.05;91.48;101544.84;5009765;28;20025;-69
2022/10/20 07:23:11;;;;;;;6.43;4.55;;;;;;;9.19;88.97;101526.09;5015715;28;20018;-69
2022/10/20 07:25:37;;;;;;;7.80;3.90;;;;;;;9.35;85.99;101515.25;5011267;28;20109;-69
2022/10/20 07:28:03;;;;;;;7.25;3.15;;;;;;;9.65;80.39;101518.66;5001848;28;20036;-70
2022/10/20 07:30:28;;;;;;;6.75;3.38;;;;;;;10.18;77.69;101545.50;5004986;28;20029;-69
2022/10/20 07:32:53;;;;;;;11.32;3.28;;;;;;;10.78;74.39;101541.34;5013138;28;20041;-70
2022/10/20 07:35:19;;;;;;;7.43;3.15;;;;;;;11.69;69.49;101505.25;5025356;28;20037;-71
2022/10/20 07:37:44;;;;;;;4.38;2.50;;;;;;;12.68;63.88;101511.94;5012239;28;20388;-70
2022/10/20 07:40:10;;;;;;;3.83;2.40;;;;;;;13.61;58.96;101522.41;5010491;28;20634;-70
2022/10/20 07:42:36;;;;;;;4.97;2.05;;;;;;;14.45;55.47;101519.84;5028219;28;20067;-70
2022/10/20 07:45:01;;;;;;;2.53;1.75;;;;;;;14.86;52.18;101501.78;5021319;28;20033;-70
2022/10/20 07:47:26;;;;;;;6.25;2.28;;;;;;;15.85;49.54;101521.72;5019261;28;20032;-69
2022/10/20 07:49:52;;;;;;;8.32;1.90;;;;;;;15.90;48.95;101520.28;5021593;28;20029;-70
2022/10/20 07:52:17;;;;;;;3.97;1.45;;;;;;;16.05;47.56;101506.38;5008066;28;20113;-70
2022/10/20 07:54:43;;;;;;;7.05;1.80;;;;;;;15.80;48.22;101535.66;5026104;28;20109;-69
2022/10/20 07:57:09;;;;;;;5.43;1.60;;;;;;;15.13;49.54;101534.50;5010261;28;20050;-70
2022/10/20 07:59:35;;;;;;;4.28;1.80;;;;;;;14.86;50.07;101528.78;5008651;28;20025;-70
2022/10/20 08:02:00;;;;;;;3.72;2.20;;;;;;;14.39;51.60;101542.81;5008644;28;20437;-70
2022/10/20 08:04:26;;;;;;;3.97;2.10;;;;;;;13.98;52.75;101539.09;5009266;28;20060;-71
2022/10/20 08:06:52;;;;;;;1.90;1.63;;;;;;;13.68;54.24;101531.69;5008301;28;20034;-70
2022/10/20 08:09:17;;;;;;;4.20;2.10;;;;;;;13.45;54.63;101536.25;5008041;28;20044;-70
2022/10/20 08:11:42;;;;;;;5.10;2.80;;;;;;;13.30;55.31;101542.00;5008888;28;20033;-71
2022/10/20 08:14:08;;;;;;;4.22;2.50;;;;;;;13.06;56.68;101541.28;5006632;28;20034;-69
2022/10/20 08:16:33;;;;;;;3.95;2.17;;;;;;;12.77;57.73;101529.19;5016520;28;20113;-70
2022/10/20 08:18:59;;;;;;;4.60;2.45;;;;;;;12.62;58.11;101538.44;5012188;28;20029;-69
2022/10/20 08:21:25;;;;;;;4.97;2.13;;;;;;;12.44;57.68;101519.19;5017345;28;20049;-70
2022/10/20 08:23:50;;;;;;;4.47;2.35;;;;;;;12.41;58.51;101530.16;5015161;28;20463;-69
2022/10/20 08:26:19;;;;;;;4.15;2.28;;;;;;;12.41;58.86;101543.63;5008984;28;20034;-70
2022/10/20 08:28:45;;;;;;;4.88;2.30;;;;;;;12.32;58.63;101546.16;5011418;28;20021;-69
2022/10/20 08:31:11;;;;;;;5.03;2.40;;;;;;;12.04;59.54;101517.81;5015672;28;20025;-69
2022/10/20 08:33:36;;;;;;;5.18;2.78;;;;;;;12.14;59.53;101536.78;5018985;28;20029;-70
2022/10/20 08:36:05;;;;;;;4.32;2.58;;;;;;;12.18;59.62;101543.63;5008149;28;20518;-69
2022/10/20 08:38:30;;;;;;;4.60;2.55;;;;;;;12.05;59.63;101548.22;5008503;28;20112;-69
2022/10/20 08:40:58;;;;;;;5.15;2.40;;;;;;;12.03;59.82;101547.50;5006733;28;20388;-69
2022/10/20 08:43:24;;;;;;;5.70;2.90;;;;;;;12.00;60.37;101551.28;4994783;28;20085;-69
2022/10/20 08:45:49;;;;;;;4.40;2.17;;;;;;;12.01;61.23;101546.75;4997224;28;20042;-69
2022/10/20 08:48:22;;;;;;;5.28;2.95;;;;;;;12.07;60.70;101540.91;5020814;28;20033;-70
2022/10/20 08:50:50;;;;;;;5.38;2.72;;;;;;;11.98;61.09;101517.38;5001815;28;20025;-69
2022/10/20 08:53:18;;;;;;;5.65;2.90;;;;;;;12.15;60.56;101543.91;5030253;28;20057;-70
2022/10/20 08:55:44;;;;;;;3.65;2.60;;;;;;;12.25;60.06;101548.44;5017585;28;20029;-70
2022/10/20 08:58:17;;;;;;;6.90;2.92;;;;;;;12.33;59.92;101540.69;5008368;28;20392;-70
2022/10/20 09:00:44;;;;;;;3.38;2.50;;;;;;;12.38;59.76;101535.78;5011540;28;20096;-71
2022/10/20 09:03:30;;;;;;;5.15;3.15;;;;;;;12.54;60.40;101546.25;5014200;28;20018;-70
2022/10/20 09:06:05;;;;;;;5.70;3.03;;;;;;;12.65;59.86;101530.13;5025429;28;20037;-69
2022/10/20 09:08:36;;;;;;;5.90;2.90;;;;;;;12.91;58.00;101550.50;5000609;28;20526;-70
2022/10/20 09:11:02;;;;;;;6.90;2.50;;;;;;;12.98;57.68;101520.28;5011710;28;20409;-69
2022/10/20 09:13:32;;;;;;;5.43;2.70;;;;;;;13.50;57.23;101547.53;4996635;28;20033;-69
2022/10/20 09:16:02;;;;;;;4.25;3.08;;;;;;;14.10;55.44;101555.16;5021729;28;20467;-69
2022/10/20 09:18:29;;;;;;;3.05;2.50;;;;;;;15.62;51.59;101514.81;4997889;28;20034;-69
2022/10/20 09:21:02;;;;;;;3.33;2.10;;;;;;;18.39;45.55;101532.19;5011143;28;20683;-69
2022/10/20 09:23:37;;;;;;;4.10;2.35;;;;;;;20.58;40.05;101506.78;5020212;28;20013;-69
2022/10/20 09:26:03;;;;;;;3.17;2.03;;;;;;;22.47;36.14;101517.38;5008645;28;20030;-69
2022/10/20 09:28:28;;;;;;;3.55;2.00;;;;;;;23.78;33.54;101512.16;5024893;28;20072;-68
2022/10/20 09:30:55;;;;;;;3.72;2.08;;;;;;;24.92;31.92;101502.06;5005918;28;20029;-73
2022/10/20 09:33:30;;;;;;;3.53;1.88;;;;;;;25.81;29.67;101515.75;5018348;28;20037;-71
2022/10/20 09:36:10;;;;;;;4.80;1.73;;;;;;;26.43;28.41;101494.41;5017780;28;20041;-72
2022/10/20 09:38:40;;;;;;;3.92;1.77;;;;;;;26.94;27.75;101514.81;5026765;28;20056;-72
2022/10/20 09:41:16;;;;;;;4.50;1.85;;;;;;;26.86;27.53;101517.78;5003429;28;20475;-72
2022/10/20 09:43:55;;;;;;;3.20;2.00;;;;;;;27.45;26.88;101499.31;5014546;28;20025;-71
2022/10/20 09:46:24;;;;;;;2.75;1.38;;;;;;;27.67;26.32;101500.72;4998342;28;20030;-73
2022/10/20 09:48:50;;;;;;;4.47;1.45;;;;;;;27.94;26.32;101483.03;5002632;28;20048;-72
2022/10/20 09:51:21;;;;;;;3.30;1.75;;;;;;;27.82;26.10;101476.47;5002805;28;20022;-72
2022/10/20 09:53:57;;;;;;;3.83;2.00;;;;;;;28.39;25.77;101500.38;5002372;28;20038;-71
2022/10/20 09:56:27;;;;;;;4.32;2.00;;;;;;;27.84;26.23;101492.78;5001773;28;20030;-72
2022/10/20 09:58:54;;;;;;;2.97;1.70;;;;;;;28.02;25.80;101501.25;5009511;28;20034;-71
2022/10/20 10:01:20;;;;;;;5.90;1.73;;;;;;;27.38;26.67;101506.75;5004024;28;20054;-72
2022/10/20 10:03:51;;;;;;;3.55;1.95;;;;;;;26.80;27.10;101498.50;5012631;28;20033;-71
2022/10/20 10:06:41;;;;;;;4.70;1.73;;;;;;;26.37;27.88;101495.22;5009133;28;20065;-72
2022/10/20 10:09:36;;;;;;;3.28;1.70;;;;;;;25.12;28.59;101483.84;5022821;28;20132;-73
2022/10/20 10:12:11;;;;;;;3.08;1.60;;;;;;;24.61;29.70;101504.28;5019801;28;20033;-72
2022/10/20 10:14:47;;;;;;;4.07;1.60;;;;;;;23.66;31.02;101492.63;5001472;28;20029;-72
2022/10/20 10:17:37;;;;;;;5.68;2.05;;;;;;;22.85;31.73;101490.94;5026719;28;20096;-72
2022/10/20 10:20:27;;;;;;;3.83;1.50;;;;;;;21.86;33.32;101512.81;5015052;28;20491;-73
2022/10/20 10:23:17;;;;;;;3.20;1.88;;;;;;;21.01;34.34;101501.84;5007707;28;20041;-71
2022/10/20 10:25:43;;;;;;;3.67;1.73;;;;;;;20.17;36.02;101501.31;5013754;28;20056;-72
2022/10/20 10:28:29;;;;;;;4.70;1.80;;;;;;;19.45;37.36;101505.63;5007107;28;20116;-72
2022/10/20 10:31:24;;;;;;;3.42;1.90;;;;;;;18.97;38.16;101516.19;5012614;28;20079;-73
2022/10/20 10:33:55;;;;;;;2.78;1.92;;;;;;;18.44;39.07;101510.81;4997917;28;20050;-72
2022/10/20 10:36:24;;;;;;;7.03;1.90;;;;;;;18.02;39.71;101496.13;5004565;28;20045;-72
2022/10/20 10:38:49;;;;;;;6.43;1.98;;;;;;;17.49;40.66;101506.03;5011619;28;20047;-71
2022/10/20 10:41:24;;;;;;;5.00;2.00;;;;;;;17.19;41.54;101490.00;5009369;28;20025;-72
2022/10/20 10:44:31;;;;;;;3.15;1.80;;;;;;;16.73;42.47;101473.75;5015929;28;20018;-72
2022/10/20 10:47:16;;;;;;;4.45;1.98;;;;;;;16.59;43.57;101499.41;4983654;28;20053;-73
2022/10/20 10:50:07;;;;;;;5.38;1.98;;;;;;;16.47;43.50;101484.31;5007937;28;20062;-72
2022/10/20 10:52:40;;;;;;;2.25;1.83;;;;;;;16.23;44.47;101464.91;5009182;28;20041;-73
2022/10/20 10:55:27;;;;;;;3.03;1.80;;;;;;;16.02;44.56;101483.13;5020636;28;20038;-71
2022/10/20 10:58:07;;;;;;;7.38;2.13;;;;;;;15.88;45.00;101492.53;5009194;28;20064;-71
2022/10/20 11:00:48;;;;;;;4.43;2.15;;;;;;;15.63;45.57;101463.28;5025673;28;20718;-71
2022/10/20 11:03:31;;;;;;;4.05;2.63;;;;;;;15.67;45.79;101489.06;5016784;28;20049;-73
2022/10/20 11:06:05;;;;;;;3.70;1.85;;;;;;;15.59;45.91;101469.97;5008305;28;20038;-72
2022/10/20 11:08:48;;;;;;;3.00;2.05;;;;;;;15.50;46.30;101476.22;5004465;28;20397;-72
2022/10/20 11:11:19;;;;;;;5.40;2.10;;;;;;;15.47;46.50;101471.09;4997403;28;20041;-72
2022/10/20 11:14:26;;;;;;;2.60;2.10;;;;;;;15.47;45.93;101471.09;5005377;28;20049;-72
2022/10/20 11:17:16;;;;;;;3.40;1.92;;;;;;;15.36;46.65;101462.19;4998887;28;20120;-72
2022/10/20 11:20:03;;;;;;;3.90;2.08;;;;;;;15.34;46.82;101465.03;5014997;28;20026;-73
2022/10/20 11:22:50;;;;;;;3.28;2.15;;;;;;;15.26;47.06;101453.19;5009174;28;20040;-72
2022/10/20 11:25:22;;;;;;;5.18;2.22;;;;;;;15.25;47.30;101454.19;5006963;28;20122;-72
2022/10/20 11:27:49;;;;;;;4.32;2.20;;;;;;;15.22;47.41;101449.91;5012035;28;20061;-72
2022/10/20 11:30:21;;;;;;;4.05;2.10;;;;;;;15.22;47.84;101443.66;5004524;28;20022;-71
2022/10/20 11:32:58;;;;;;;4.72;2.30;;;;;;;15.21;47.63;101441.91;5002309;28;20136;-72
2022/10/20 11:35:52;;;;;;;5.30;1.60;;;;;;;15.10;47.69;101437.50;5021253;28;20042;-72